createdAt,value
2023-03-22T00:00:18.948Z,7.43
2023-03-22T00:02:46.077Z,6.38
2023-03-22T00:05:12.988Z,7.97
2023-03-22T00:07:40.962Z,7.50
2023-03-22T00:10:08.873Z,7.10
2023-03-22T00:12:35.803Z,7.38
2023-03-22T00:15:02.974Z,8.07
2023-03-22T00:17:30.701Z,7.72
2023-03-22T00:19:58.361Z,8.80
2023-03-22T00:22:26.115Z,7.68
2023-03-22T00:24:53.008Z,7.32
2023-03-22T00:27:19.873Z,7.47
2023-03-22T00:29:46.752Z,7.68
2023-03-22T00:32:13.636Z,7.35
2023-03-22T00:34:40.594Z,7.88
2023-03-22T00:37:08.024Z,7.90
2023-03-22T00:39:35.097Z,8.50
2023-03-22T00:42:05.827Z,8.52
2023-03-22T00:44:32.971Z,8.73
2023-03-22T00:47:00.628Z,7.97
2023-03-22T00:49:27.739Z,7.70
2023-03-22T00:51:54.857Z,7.88
2023-03-22T00:54:21.859Z,7.75
2023-03-22T00:56:49.912Z,7.53
2023-03-22T00:59:17.413Z,8.38
2023-03-22T01:01:44.469Z,7.93
2023-03-22T01:04:17.855Z,7.05
2023-03-22T01:06:46.998Z,7.80
2023-03-22T01:09:15.092Z,7.28
2023-03-22T01:11:43.727Z,6.97
2023-03-22T01:14:13.704Z,7.97
2023-03-22T01:16:40.918Z,7.28
2023-03-22T01:19:08.355Z,7.10
2023-03-22T01:21:35.406Z,9.55
2023-03-22T01:24:02.332Z,7.95
2023-03-22T01:26:29.214Z,6.95
2023-03-22T01:28:56.328Z,8.02
2023-03-22T01:31:23.570Z,9.55
2023-03-22T01:33:50.793Z,8.68
2023-03-22T01:36:18.103Z,8.27
2023-03-22T01:38:44.965Z,8.48
2023-03-22T01:41:12.154Z,10.50
2023-03-22T01:43:41.879Z,9.50
2023-03-22T01:46:09.589Z,9.57
2023-03-22T01:48:46.043Z,8.48
2023-03-22T01:51:25.274Z,7.85
2023-03-22T01:54:18.422Z,9.25
2023-03-22T01:56:47.098Z,10.00
2023-03-22T01:59:22.407Z,8.73
2023-03-22T02:02:10.812Z,8.48
2023-03-22T02:04:39.365Z,8.82
2023-03-22T02:07:15.594Z,8.55
2023-03-22T02:09:45.735Z,10.32
2023-03-22T02:13:15.373Z,8.77
2023-03-22T02:16:00.035Z,8.52
2023-03-22T02:19:43.420Z,10.20
2023-03-22T02:22:53.130Z,9.65
2023-03-22T02:25:41.641Z,9.65
2023-03-22T02:28:37.558Z,9.32
2023-03-22T02:31:37.521Z,9.98
2023-03-22T02:34:44.447Z,9.15
2023-03-22T02:38:11.814Z,9.23
2023-03-22T02:41:12.196Z,8.73
2023-03-22T02:44:17.163Z,8.23
2023-03-22T02:46:51.633Z,8.50
2023-03-22T02:49:24.399Z,8.70
2023-03-22T02:52:03.489Z,9.40
2023-03-22T02:55:20.190Z,9.13
2023-03-22T02:57:58.765Z,8.15
2023-03-22T03:00:28.156Z,8.90
2023-03-22T03:03:18.269Z,8.30
2023-03-22T03:05:55.836Z,8.07
2023-03-22T03:08:25.433Z,9.38
2023-03-22T03:10:53.807Z,9.02
2023-03-22T03:13:21.241Z,9.38
2023-03-22T03:15:59.245Z,8.95
2023-03-22T03:19:00.524Z,8.52
2023-03-22T03:21:45.227Z,8.25
2023-03-22T03:24:42.724Z,8.15
2023-03-22T03:27:17.658Z,8.77
2023-03-22T03:30:15.344Z,7.75
2023-03-22T03:32:50.287Z,8.90
2023-03-22T03:35:32.501Z,7.77
2023-03-22T03:38:14.944Z,8.48
2023-03-22T03:41:00.741Z,8.18
2023-03-22T03:43:27.735Z,7.68
2023-03-22T03:45:55.809Z,8.57
2023-03-22T03:48:28.393Z,7.95
2023-03-22T03:50:59.094Z,8.23
2023-03-22T03:53:26.337Z,8.00
2023-03-22T03:55:53.357Z,7.82
2023-03-22T03:58:20.426Z,7.47
2023-03-22T04:00:51.091Z,7.60
2023-03-22T04:03:41.016Z,8.55
2023-03-22T04:06:39.457Z,8.32
2023-03-22T04:09:11.885Z,8.23
2023-03-22T04:11:43.037Z,9.10
2023-03-22T04:14:10.942Z,8.50
2023-03-22T04:16:38.457Z,8.32
2023-03-22T04:19:07.986Z,7.43
2023-03-22T04:21:34.862Z,9.20
2023-03-22T04:24:03.637Z,7.60
2023-03-22T04:26:36.475Z,7.75
2023-03-22T04:29:24.456Z,7.70
2023-03-22T04:31:57.180Z,9.27
2023-03-22T04:34:34.991Z,8.35
2023-03-22T04:37:04.272Z,7.97
2023-03-22T04:39:33.107Z,7.50
2023-03-22T04:42:28.523Z,7.55
2023-03-22T04:45:18.614Z,7.47
2023-03-22T04:47:50.894Z,7.82
2023-03-22T04:50:17.996Z,6.95
2023-03-22T04:52:51.178Z,7.63
2023-03-22T04:55:18.245Z,7.63
2023-03-22T04:57:46.051Z,7.65
2023-03-22T05:00:13.630Z,7.68
2023-03-22T05:02:41.788Z,7.00
2023-03-22T05:05:16.693Z,6.60
2023-03-22T05:07:45.668Z,7.28
2023-03-22T05:10:12.553Z,6.60
2023-03-22T05:12:40.401Z,6.63
2023-03-22T05:15:19.281Z,6.57
2023-03-22T05:17:48.182Z,5.97
2023-03-22T05:20:15.933Z,6.50
2023-03-22T05:22:50.450Z,6.18
2023-03-22T05:25:18.947Z,6.88
2023-03-22T05:27:46.487Z,6.20
2023-03-22T05:33:07.174Z,6.20
2023-03-22T05:35:41.924Z,6.05
2023-03-22T05:38:10.896Z,5.72
2023-03-22T05:40:43.091Z,6.25
2023-03-22T05:43:10.728Z,7.18
2023-03-22T05:45:42.391Z,6.18
2023-03-22T05:48:23.168Z,5.65
2023-03-22T05:50:50.181Z,6.03
2023-03-22T05:53:17.617Z,5.18
2023-03-22T05:56:11.307Z,5.50
2023-03-22T05:58:41.195Z,6.13
2023-03-22T06:01:13.096Z,4.93
2023-03-22T06:03:46.570Z,6.25
2023-03-22T06:06:25.016Z,5.72
2023-03-22T06:09:15.966Z,5.63
2023-03-22T06:11:44.211Z,5.40
2023-03-22T06:14:11.916Z,5.57
2023-03-22T06:16:57.395Z,4.90
2023-03-22T06:19:25.579Z,5.80
2023-03-22T06:21:54.847Z,5.93
2023-03-22T06:24:24.406Z,4.75
2023-03-22T06:26:51.491Z,5.82
2023-03-22T06:29:18.833Z,6.05
2023-03-22T06:31:45.937Z,6.15
2023-03-22T06:34:13.180Z,5.63
2023-03-22T06:36:42.489Z,5.50
2023-03-22T06:39:13.818Z,5.20
2023-03-22T06:41:43.849Z,5.65
2023-03-22T06:44:11.002Z,5.47
2023-03-22T06:46:56.070Z,5.95
2023-03-22T06:49:41.505Z,5.55
2023-03-22T06:52:10.046Z,5.10
2023-03-22T06:54:37.272Z,5.60
2023-03-22T06:57:09.709Z,5.78
2023-03-22T06:59:36.730Z,6.15
2023-03-22T07:02:23.182Z,5.32
2023-03-22T07:05:10.579Z,5.30
2023-03-22T07:07:38.763Z,5.80
2023-03-22T07:10:07.844Z,5.38
2023-03-22T07:12:35.206Z,5.28
2023-03-22T07:15:09.727Z,5.22
2023-03-22T07:17:53.884Z,5.03
2023-03-22T07:20:21.368Z,5.32
2023-03-22T07:22:51.814Z,4.85
2023-03-22T07:25:21.439Z,4.53
2023-03-22T07:27:54.172Z,5.03
2023-03-22T07:30:22.453Z,4.88
2023-03-22T07:32:50.001Z,4.70
2023-03-22T07:35:18.896Z,4.78
2023-03-22T07:37:47.361Z,5.10
2023-03-22T07:40:30.596Z,4.80
2023-03-22T07:42:59.082Z,4.80
2023-03-22T07:45:49.895Z,5.03
2023-03-22T07:48:36.058Z,5.20
2023-03-22T07:51:39.243Z,4.35
2023-03-22T07:54:07.793Z,4.90
2023-03-22T07:56:35.725Z,4.68
2023-03-22T07:59:03.178Z,5.10
2023-03-22T08:01:30.408Z,4.82
2023-03-22T08:04:19.547Z,4.68
2023-03-22T08:06:58.715Z,4.65
2023-03-22T08:09:27.299Z,5.55
2023-03-22T08:11:55.383Z,4.70
2023-03-22T08:14:36.017Z,4.97
2023-03-22T08:17:06.650Z,5.85
2023-03-22T08:19:34.876Z,5.05
2023-03-22T08:22:02.380Z,4.95
2023-03-22T08:27:27.267Z,4.05
2023-03-22T08:29:54.965Z,3.67
2023-03-22T08:32:21.852Z,4.20
2023-03-22T08:34:48.870Z,4.30
2023-03-22T08:37:16.124Z,4.18
2023-03-22T08:39:44.983Z,4.15
2023-03-22T08:42:23.846Z,3.88
2023-03-22T08:44:52.574Z,3.85
2023-03-22T08:47:22.006Z,3.60
2023-03-22T08:49:57.466Z,2.90
2023-03-22T08:52:35.654Z,2.42
2023-03-22T08:55:08.612Z,2.33
2023-03-22T08:57:58.742Z,2.58
2023-03-22T09:00:49.038Z,1.92
2023-03-22T09:03:25.059Z,2.28
2023-03-22T09:05:52.945Z,2.00
2023-03-22T09:08:20.677Z,2.33
2023-03-22T09:10:53.269Z,2.53
2023-03-22T09:13:22.798Z,2.42
2023-03-22T09:15:58.636Z,2.25
2023-03-22T09:18:37.923Z,2.20
2023-03-22T09:21:12.355Z,1.90
2023-03-22T09:23:52.477Z,2.20
2023-03-22T09:26:25.624Z,1.65
2023-03-22T09:29:14.513Z,1.90
2023-03-22T09:31:41.734Z,1.70
2023-03-22T09:34:17.837Z,1.77
2023-03-22T09:36:50.065Z,1.25
2023-03-22T09:39:22.695Z,1.38
2023-03-22T09:41:59.367Z,1.38
2023-03-22T09:44:42.741Z,1.40
2023-03-22T09:47:21.663Z,1.30
2023-03-22T09:49:56.841Z,0.95
2023-03-22T09:52:23.845Z,1.25
2023-03-22T09:54:52.883Z,0.98
2023-03-22T09:57:38.944Z,1.23
2023-03-22T10:00:31.289Z,0.80
2023-03-22T10:03:18.333Z,0.75
2023-03-22T10:06:17.596Z,0.60
2023-03-22T10:09:09.162Z,0.73
2023-03-22T10:11:46.258Z,0.98
2023-03-22T10:14:38.310Z,0.80
2023-03-22T10:17:24.016Z,0.85
2023-03-22T10:20:00.571Z,0.90
2023-03-22T10:22:38.327Z,0.70
2023-03-22T10:25:08.419Z,0.90
2023-03-22T10:27:42.989Z,0.90
2023-03-22T10:30:26.218Z,1.17
2023-03-22T10:33:04.601Z,1.30
2023-03-22T10:35:32.478Z,1.10
2023-03-22T10:38:04.842Z,0.90
2023-03-22T10:40:36.275Z,0.88
2023-03-22T10:43:39.060Z,1.00
2023-03-22T10:46:15.542Z,1.13
2023-03-22T10:48:48.511Z,0.90
2023-03-22T10:51:48.210Z,0.77
2023-03-22T10:54:18.825Z,0.90
2023-03-22T10:56:53.067Z,1.48
2023-03-22T10:59:49.725Z,1.35
2023-03-22T11:02:31.053Z,1.00
2023-03-22T11:05:07.096Z,0.90
2023-03-22T11:07:45.472Z,0.98
2023-03-22T11:10:22.243Z,0.80
2023-03-22T11:12:56.999Z,0.80
2023-03-22T11:15:25.982Z,0.80
2023-03-22T11:18:06.963Z,0.77
2023-03-22T11:20:35.287Z,1.02
2023-03-22T11:23:24.329Z,1.00
2023-03-22T11:26:10.127Z,1.20
2023-03-22T11:29:15.117Z,0.90
2023-03-22T11:32:01.432Z,1.17
2023-03-22T11:34:32.003Z,0.85
2023-03-22T11:37:15.738Z,1.05
2023-03-22T11:39:59.848Z,1.20
2023-03-22T11:42:27.494Z,0.85
2023-03-22T11:44:57.038Z,1.00
2023-03-22T11:47:40.439Z,0.82
2023-03-22T11:50:36.421Z,0.98
2023-03-22T11:53:10.803Z,0.77
2023-03-22T11:55:38.305Z,1.00
2023-03-22T11:58:55.056Z,0.77
2023-03-22T12:01:40.865Z,0.45
2023-03-22T12:04:15.276Z,0.80
2023-03-22T12:06:50.403Z,0.93
2023-03-22T12:10:03.847Z,0.50
2023-03-22T12:12:42.218Z,0.60
2023-03-22T12:16:07.056Z,0.60
2023-03-22T12:19:32.537Z,0.60
2023-03-22T12:22:46.320Z,0.70
2023-03-22T12:25:24.896Z,0.73
2023-03-22T12:27:58.565Z,0.93
2023-03-22T12:30:37.663Z,1.05
2023-03-22T12:33:18.760Z,0.60
2023-03-22T12:35:48.399Z,0.68
2023-03-22T12:38:40.547Z,0.70
2023-03-22T12:41:16.510Z,0.63
2023-03-22T12:44:13.928Z,0.70
2023-03-22T12:47:01.781Z,0.90
2023-03-22T12:50:16.085Z,1.13
2023-03-22T12:53:16.214Z,0.75
2023-03-22T12:55:46.159Z,0.85
2023-03-22T12:58:23.757Z,0.90
2023-03-22T13:01:14.084Z,0.82
2023-03-22T13:04:22.295Z,0.70
2023-03-22T13:06:55.336Z,0.80
2023-03-22T13:09:40.774Z,0.80
2023-03-22T13:12:16.942Z,0.90
2023-03-22T13:15:28.511Z,0.70
2023-03-22T13:17:59.220Z,0.98
2023-03-22T13:20:31.140Z,1.15
2023-03-22T13:23:01.395Z,1.42
2023-03-22T13:25:38.677Z,1.45
2023-03-22T13:28:29.615Z,1.10
2023-03-22T13:30:59.317Z,1.20
2023-03-22T13:33:34.713Z,1.00
2023-03-22T13:36:25.286Z,0.80
2023-03-22T13:39:02.762Z,0.60
2023-03-22T13:41:36.713Z,1.70
2023-03-22T13:44:30.492Z,1.00
2023-03-22T13:47:01.244Z,1.65
2023-03-22T13:49:49.665Z,1.40
2023-03-22T13:52:41.527Z,1.10
2023-03-22T13:55:51.761Z,0.98
2023-03-22T13:58:53.100Z,1.00
2023-03-22T14:01:47.849Z,0.80
2023-03-22T14:04:23.347Z,0.70
2023-03-22T14:07:06.966Z,0.68
2023-03-22T14:09:43.594Z,0.63
2023-03-22T14:12:32.009Z,0.90
2023-03-22T14:15:04.806Z,1.05
2023-03-22T14:17:55.305Z,0.90
2023-03-22T14:20:30.278Z,1.13
